createdAt,value
2022-09-27T00:02:28.311Z,60.98
2022-09-27T00:07:30.372Z,61.03
2022-09-27T00:12:32.411Z,60.91
2022-09-27T00:17:34.363Z,60.94
2022-09-27T00:22:36.574Z,60.84
2022-09-27T00:27:38.498Z,60.96
2022-09-27T00:32:40.404Z,61.04
2022-09-27T00:37:42.993Z,61.07
2022-09-27T00:42:45.223Z,61.17
2022-09-27T00:48:01.129Z,61.17
2022-09-27T00:53:23.828Z,61.33
2022-09-27T00:58:37.747Z,61.48
2022-09-27T01:03:45.464Z,61.51
2022-09-27T01:08:47.632Z,61.50
2022-09-27T01:14:15.162Z,61.52
2022-09-27T01:19:39.386Z,61.48
2022-09-27T01:24:41.433Z,61.53
2022-09-27T01:30:01.987Z,61.50
2022-09-27T01:35:34.595Z,61.41
2022-09-27T01:40:42.516Z,61.69
2022-09-27T01:46:11.924Z,61.60
2022-09-27T01:51:45.437Z,61.66
2022-09-27T01:56:52.407Z,61.88
2022-09-27T02:02:03.612Z,61.77
2022-09-27T02:07:25.585Z,61.84
2022-09-27T02:12:35.906Z,62.02
2022-09-27T02:17:51.442Z,62.00
2022-09-27T02:23:31.896Z,62.29
2022-09-27T02:28:56.457Z,62.35
2022-09-27T02:34:13.923Z,62.42
2022-09-27T02:39:17.971Z,63.00
2022-09-27T02:44:21.469Z,62.74
2022-09-27T02:49:42.257Z,62.81
2022-09-27T02:55:24.883Z,63.02
2022-09-27T03:01:01.541Z,63.30
2022-09-27T03:06:37.861Z,63.25
2022-09-27T03:11:39.708Z,63.29
2022-09-27T03:16:41.864Z,63.47
2022-09-27T03:22:04.193Z,63.61
2022-09-27T03:27:06.437Z,63.72
2022-09-27T03:32:08.298Z,64.14
2022-09-27T03:37:37.925Z,64.08
2022-09-27T03:42:39.932Z,64.20
2022-09-27T03:47:42.041Z,64.41
2022-09-27T03:52:44.879Z,64.55
2022-09-27T03:57:47.544Z,64.85
2022-09-27T04:02:51.726Z,65.09
2022-09-27T04:07:59.772Z,65.29
2022-09-27T04:13:04.536Z,65.14
2022-09-27T04:18:11.831Z,65.23
2022-09-27T04:23:31.793Z,65.33
2022-09-27T04:28:33.814Z,65.39
2022-09-27T04:33:35.724Z,65.59
2022-09-27T04:38:41.938Z,65.63
2022-09-27T04:43:44.190Z,65.88
2022-09-27T04:48:46.255Z,65.86
2022-09-27T04:53:48.137Z,65.83
2022-09-27T04:58:50.148Z,65.93
2022-09-27T05:03:52.464Z,66.02
2022-09-27T05:08:54.446Z,65.84
2022-09-27T05:14:01.960Z,66.10
2022-09-27T05:19:04.763Z,66.18
2022-09-27T05:24:25.422Z,66.16
2022-09-27T05:29:28.819Z,66.20
2022-09-27T05:34:45.206Z,66.15
2022-09-27T05:39:47.356Z,66.24
2022-09-27T05:44:49.330Z,66.20
2022-09-27T05:49:51.898Z,66.37
2022-09-27T05:54:53.835Z,66.46
2022-09-27T05:59:55.856Z,66.68
2022-09-27T06:05:15.861Z,66.75
2022-09-27T06:10:37.731Z,66.81
2022-09-27T06:15:44.009Z,66.86
2022-09-27T06:20:46.284Z,66.88
2022-09-27T06:25:49.233Z,67.02
2022-09-27T06:31:15.584Z,67.06
2022-09-27T06:36:51.504Z,67.25
2022-09-27T06:41:58.288Z,67.31
2022-09-27T06:47:19.470Z,67.29
2022-09-27T06:52:38.176Z,67.51
2022-09-27T06:57:58.705Z,67.63
2022-09-27T07:03:03.273Z,67.64
2022-09-27T07:08:40.240Z,67.71
2022-09-27T07:13:43.729Z,67.80
2022-09-27T07:18:48.449Z,67.97
2022-09-27T07:23:50.703Z,68.04
2022-09-27T07:28:53.537Z,67.97
2022-09-27T07:33:57.253Z,68.06
2022-09-27T07:39:00.193Z,68.12
2022-09-27T07:44:02.596Z,67.99
2022-09-27T07:49:08.222Z,68.05
2022-09-27T07:54:25.197Z,67.98
2022-09-27T07:59:49.368Z,67.93
2022-09-27T08:04:54.146Z,68.00
2022-09-27T08:09:57.103Z,67.86
2022-09-27T08:15:01.535Z,67.78
2022-09-27T08:20:06.554Z,67.68
2022-09-27T08:25:30.597Z,67.63
2022-09-27T08:31:00.243Z,67.63
2022-09-27T08:36:03.534Z,67.52
2022-09-27T08:41:29.237Z,67.46
2022-09-27T08:46:48.880Z,67.21
2022-09-27T08:51:54.156Z,67.11
2022-09-27T08:57:03.901Z,67.12
2022-09-27T09:02:16.266Z,66.92
2022-09-27T09:07:32.582Z,66.45
2022-09-27T09:12:48.623Z,66.15
2022-09-27T09:18:20.964Z,66.29
2022-09-27T09:23:50.433Z,66.41
2022-09-27T09:29:20.664Z,66.68
2022-09-27T09:34:28.200Z,66.72
2022-09-27T09:39:44.384Z,66.95
2022-09-27T09:45:00.267Z,66.95
2022-09-27T09:50:18.553Z,67.20
2022-09-27T09:55:23.555Z,66.94
2022-09-27T10:00:26.107Z,66.92
2022-09-27T10:05:29.444Z,67.08
2022-09-27T10:10:38.628Z,67.15
2022-09-27T10:16:12.032Z,67.40
2022-09-27T10:21:38.723Z,67.48
2022-09-27T10:26:44.123Z,67.35
2022-09-27T10:31:48.727Z,66.80
2022-09-27T10:37:17.377Z,66.09
2022-09-27T10:42:38.992Z,65.87
2022-09-27T10:47:44.643Z,65.81
2022-09-27T10:53:06.934Z,65.62
2022-09-27T10:58:20.817Z,65.71
2022-09-27T11:03:26.505Z,65.70
2022-09-27T11:08:34.147Z,65.69
2022-09-27T11:14:05.281Z,65.69
2022-09-27T11:19:36.616Z,65.34
2022-09-27T11:25:04.877Z,65.48
2022-09-27T11:30:14.087Z,65.79
2022-09-27T11:35:42.283Z,65.98
2022-09-27T11:41:22.931Z,66.28
2022-09-27T11:46:41.330Z,66.56
2022-09-27T11:51:52.073Z,66.40
2022-09-27T11:57:23.383Z,66.76
2022-09-27T12:02:54.767Z,66.51
2022-09-27T12:08:08.787Z,66.57
2022-09-27T12:13:14.727Z,66.55
2022-09-27T12:18:35.403Z,66.69
2022-09-27T12:23:47.469Z,66.70
2022-09-27T12:29:27.840Z,66.81
2022-09-27T12:34:50.841Z,66.87
2022-09-27T12:39:55.840Z,67.01
2022-09-27T12:45:05.833Z,66.94
2022-09-27T12:50:07.678Z,67.01
2022-09-27T12:55:12.431Z,67.00
2022-09-27T13:00:25.714Z,67.13
2022-09-27T13:06:00.677Z,67.17
2022-09-27T13:11:30.495Z,66.84
2022-09-27T13:16:46.890Z,66.42
2022-09-27T13:21:51.475Z,66.54
2022-09-27T13:27:36.566Z,66.21
2022-09-27T13:32:41.030Z,66.12
2022-09-27T13:37:54.304Z,65.84
2022-09-27T13:43:13.446Z,65.57
2022-09-27T13:48:36.679Z,65.50
2022-09-27T13:53:41.363Z,65.09
2022-09-27T13:58:52.824Z,64.91
2022-09-27T14:04:18.355Z,64.93
2022-09-27T14:09:32.071Z,64.68
2022-09-27T14:14:49.972Z,64.60
2022-09-27T14:19:54.280Z,64.49
2022-09-27T14:24:58.133Z,64.45
2022-09-27T14:30:17.296Z,64.30
2022-09-27T14:35:50.471Z,64.56
2022-09-27T14:40:53.398Z,65.02
2022-09-27T14:46:07.161Z,65.18
2022-09-27T14:51:15.074Z,65.48
2022-09-27T14:56:32.530Z,65.34
2022-09-27T15:01:35.265Z,65.48
2022-09-27T15:06:37.350Z,65.39
2022-09-27T15:11:41.695Z,65.61
2022-09-27T15:16:49.469Z,65.51
2022-09-27T15:21:51.626Z,65.50
2022-09-27T15:26:53.460Z,65.56
2022-09-27T15:32:06.926Z,65.43
2022-09-27T15:37:26.405Z,65.48
2022-09-27T15:42:28.279Z,65.60
2022-09-27T15:47:34.576Z,65.61
2022-09-27T15:52:43.777Z,65.51
2022-09-27T15:57:50.628Z,65.21
2022-09-27T16:02:52.886Z,65.01
2022-09-27T16:07:54.730Z,65.17
2022-09-27T16:12:56.709Z,65.10
2022-09-27T16:17:59.101Z,64.81
2022-09-27T16:23:00.968Z,64.67
2022-09-27T16:28:05.331Z,64.85
2022-09-27T16:33:07.078Z,65.00
2022-09-27T16:38:09.333Z,65.25
2022-09-27T16:43:12.139Z,65.42
2022-09-27T16:48:13.983Z,65.58
2022-09-27T16:53:16.091Z,65.87
2022-09-27T16:58:17.943Z,65.93
2022-09-27T17:03:19.816Z,65.99
2022-09-27T17:08:26.331Z,66.07
2022-09-27T17:13:28.167Z,66.03
2022-09-27T17:18:29.926Z,66.19
2022-09-27T17:23:32.691Z,66.40
2022-09-27T17:28:36.677Z,66.44
2022-09-27T17:33:46.140Z,66.36
2022-09-27T17:38:49.145Z,66.43
2022-09-27T17:43:56.557Z,66.61
2022-09-27T17:49:17.497Z,66.59
2022-09-27T17:54:22.894Z,66.53
2022-09-27T17:59:26.289Z,66.65
2022-09-27T18:04:28.551Z,66.65
2022-09-27T18:09:30.525Z,66.57
2022-09-27T18:14:32.343Z,66.62
2022-09-27T18:19:34.098Z,66.62
2022-09-27T18:24:35.967Z,66.75
2022-09-27T18:29:37.803Z,66.94
2022-09-27T18:34:40.355Z,67.06
2022-09-27T18:39:42.137Z,67.05
2022-09-27T18:44:43.857Z,67.08
2022-09-27T18:49:45.553Z,67.03
2022-09-27T18:54:47.567Z,66.93
2022-09-27T18:59:49.502Z,66.95
2022-09-27T19:04:51.337Z,66.80
2022-09-27T19:09:53.664Z,66.80
2022-09-27T19:14:55.512Z,66.87
2022-09-27T19:19:57.317Z,66.90
2022-09-27T19:24:59.362Z,66.89
2022-09-27T19:30:01.300Z,66.69
2022-09-27T19:35:04.187Z,66.82
2022-09-27T19:40:06.907Z,66.90
2022-09-27T19:45:11.699Z,66.78
2022-09-27T19:50:13.589Z,66.67
2022-09-27T19:55:15.877Z,66.71
2022-09-27T20:00:17.828Z,66.67
2022-09-27T20:05:19.592Z,66.61
2022-09-27T20:10:21.759Z,66.51
2022-09-27T20:15:23.647Z,66.64
2022-09-27T20:20:25.496Z,66.44
2022-09-27T20:25:28.528Z,66.50
2022-09-27T20:30:30.406Z,66.51
2022-09-27T20:35:32.287Z,66.60
2022-09-27T20:40:34.109Z,66.59
2022-09-27T20:45:35.938Z,66.50
2022-09-27T20:50:37.686Z,66.68
2022-09-27T20:55:39.490Z,66.54
2022-09-27T21:00:41.595Z,66.74
2022-09-27T21:05:43.438Z,66.77
2022-09-27T21:10:49.150Z,66.83
2022-09-27T21:15:53.680Z,66.63
2022-09-27T21:21:05.182Z,66.74
2022-09-27T21:26:12.646Z,66.70
2022-09-27T21:31:22.343Z,66.72
2022-09-27T21:36:28.195Z,66.76
2022-09-27T21:41:30.024Z,66.89
2022-09-27T21:46:32.007Z,66.84
2022-09-27T21:51:37.631Z,66.81
2022-09-27T21:56:40.901Z,66.87
2022-09-27T22:01:44.362Z,67.01
2022-09-27T22:06:46.232Z,66.92
2022-09-27T22:11:48.134Z,66.99
2022-09-27T22:16:50.054Z,67.04
2022-09-27T22:21:51.911Z,67.10
2022-09-27T22:26:54.250Z,67.17
2022-09-27T22:31:55.995Z,67.15
2022-09-27T22:37:00.865Z,67.01
2022-09-27T22:42:02.648Z,67.16
2022-09-27T22:47:05.384Z,67.19
2022-09-27T22:52:07.178Z,67.30
2022-09-27T22:57:08.926Z,67.25
2022-09-27T23:02:10.713Z,67.23
2022-09-27T23:07:13.313Z,67.13
2022-09-27T23:12:15.047Z,67.09
2022-09-27T23:17:19.274Z,67.23
2022-09-27T23:22:21.232Z,67.07
2022-09-27T23:27:41.706Z,67.09
2022-09-27T23:32:47.303Z,67.07
2022-09-27T23:37:53.300Z,67.20
2022-09-27T23:42:55.092Z,67.06
2022-09-27T23:47:57.592Z,66.99
2022-09-27T23:52:59.681Z,67.00
2022-09-27T23:58:02.013Z,66.96
